KISO/ISO METAR and TAF weather

Enter ICAO airport designator
Station Type Date Time Source
KISO METAR 2020/06/03 22:56 UTC NOAA

KISO 032256Z 22009KT 10SM CLR 31/21 A2987


Station Type Date Time Source
KISO Decoded METAR 2020/06/03 22:56 UTC NOAA

Kinston, Kinston Regional Jetport at Stallings Field, NC, United States (KISO) 35-20N 077-37W
Jun 03, 2020 - 06:56 PM EDT / 2020.06.03 2256 UTC
Wind: from the SW (220 degrees) at 10 MPH (9 KT):0
Visibility: 10 mile(s):0
Sky conditions: clear
Temperature: 87 F (31 C)
Dew Point: 69 F (21 C)
Relative Humidity: 55%
Pressure (altimeter): 29.87 in. Hg (1011 hPa)
ob: KISO 032256Z 22009KT 10SM CLR 31/21 A2987
cycle: 23

Station Type Date Time Source
KISO TAF 2020/06/03 18:30 UTC NOAA

TAF KISO 031727Z 0318/0418 23012G22KT P6SM SKC
FM040200 21008KT P6SM FEW250
FM041500 22008G15KT P6SM SCT040
AMD LTD TO CLD VIS AND WIND

Example: see airport list